sensor_id;sensor_type;location;lat;lon;timestamp;P1;durP1;ratioP1;P2;durP2;ratioP2
7306;SDS011;3694;48.732;9.248;2022-09-12T00:02:21;26.37;;;20.87;;
7306;SDS011;3694;48.732;9.248;2022-09-12T00:04:47;26.80;;;22.40;;
7306;SDS011;3694;48.732;9.248;2022-09-12T00:07:13;30.67;;;22.47;;
7306;SDS011;3694;48.732;9.248;2022-09-12T00:09:39;27.93;;;22.80;;
7306;SDS011;3694;48.732;9.248;2022-09-12T00:12:04;23.90;;;20.93;;
7306;SDS011;3694;48.732;9.248;2022-09-12T00:14:30;27.00;;;21.37;;
7306;SDS011;3694;48.732;9.248;2022-09-12T00:16:56;25.60;;;21.23;;
7306;SDS011;3694;48.732;9.248;2022-09-12T00:19:24;25.77;;;21.33;;
7306;SDS011;3694;48.732;9.248;2022-09-12T00:21:50;27.53;;;21.80;;
7306;SDS011;3694;48.732;9.248;2022-09-12T00:24:15;28.03;;;21.90;;
7306;SDS011;3694;48.732;9.248;2022-09-12T00:26:41;26.20;;;20.87;;
7306;SDS011;3694;48.732;9.248;2022-09-12T00:29:07;23.10;;;20.60;;
7306;SDS011;3694;48.732;9.248;2022-09-12T00:31:32;27.90;;;22.17;;
7306;SDS011;3694;48.732;9.248;2022-09-12T00:33:58;29.50;;;23.40;;
7306;SDS011;3694;48.732;9.248;2022-09-12T00:36:27;30.80;;;23.60;;
7306;SDS011;3694;48.732;9.248;2022-09-12T00:38:53;32.10;;;24.03;;
7306;SDS011;3694;48.732;9.248;2022-09-12T00:41:20;35.30;;;24.50;;
7306;SDS011;3694;48.732;9.248;2022-09-12T00:43:55;31.60;;;24.23;;
7306;SDS011;3694;48.732;9.248;2022-09-12T00:51:27;32.90;;;23.37;;
7306;SDS011;3694;48.732;9.248;2022-09-12T00:53:56;33.87;;;24.37;;
7306;SDS011;3694;48.732;9.248;2022-09-12T00:56:23;35.80;;;23.87;;
7306;SDS011;3694;48.732;9.248;2022-09-12T00:58:57;38.90;;;26.77;;
7306;SDS011;3694;48.732;9.248;2022-09-12T01:01:29;42.63;;;30.67;;
7306;SDS011;3694;48.732;9.248;2022-09-12T01:03:54;43.97;;;28.60;;
7306;SDS011;3694;48.732;9.248;2022-09-12T01:06:21;45.63;;;29.97;;
7306;SDS011;3694;48.732;9.248;2022-09-12T01:08:51;42.40;;;29.30;;
7306;SDS011;3694;48.732;9.248;2022-09-12T01:11:18;44.53;;;29.70;;
7306;SDS011;3694;48.732;9.248;2022-09-12T01:13:46;42.07;;;29.00;;
7306;SDS011;3694;48.732;9.248;2022-09-12T01:16:13;44.87;;;30.10;;
7306;SDS011;3694;48.732;9.248;2022-09-12T01:18:45;49.50;;;32.37;;
7306;SDS011;3694;48.732;9.248;2022-09-12T01:24:36;53.83;;;35.63;;
7306;SDS011;3694;48.732;9.248;2022-09-12T01:30:04;45.27;;;30.80;;
7306;SDS011;3694;48.732;9.248;2022-09-12T01:36:08;44.30;;;28.10;;
7306;SDS011;3694;48.732;9.248;2022-09-12T01:38:38;43.80;;;29.23;;
7306;SDS011;3694;48.732;9.248;2022-09-12T01:41:44;44.20;;;28.43;;
7306;SDS011;3694;48.732;9.248;2022-09-12T01:47:07;43.67;;;29.03;;
7306;SDS011;3694;48.732;9.248;2022-09-12T01:52:21;41.77;;;28.97;;
7306;SDS011;3694;48.732;9.248;2022-09-12T01:57:50;39.90;;;28.03;;
7306;SDS011;3694;48.732;9.248;2022-09-12T02:00:46;42.73;;;26.90;;
7306;SDS011;3694;48.732;9.248;2022-09-12T02:03:21;46.23;;;28.77;;
7306;SDS011;3694;48.732;9.248;2022-09-12T02:06:00;43.57;;;28.90;;
7306;SDS011;3694;48.732;9.248;2022-09-12T02:08:32;44.50;;;27.93;;
7306;SDS011;3694;48.732;9.248;2022-09-12T02:11:08;43.57;;;28.63;;
7306;SDS011;3694;48.732;9.248;2022-09-12T02:13:37;47.63;;;30.23;;
7306;SDS011;3694;48.732;9.248;2022-09-12T02:16:24;49.67;;;31.80;;
7306;SDS011;3694;48.732;9.248;2022-09-12T02:18:59;51.40;;;32.73;;
7306;SDS011;3694;48.732;9.248;2022-09-12T02:21:32;50.87;;;34.13;;
7306;SDS011;3694;48.732;9.248;2022-09-12T02:24:01;58.70;;;36.60;;
7306;SDS011;3694;48.732;9.248;2022-09-12T02:26:31;68.20;;;41.67;;
7306;SDS011;3694;48.732;9.248;2022-09-12T02:28:59;68.23;;;40.30;;
7306;SDS011;3694;48.732;9.248;2022-09-12T02:31:48;68.13;;;40.63;;
7306;SDS011;3694;48.732;9.248;2022-09-12T02:37:22;70.90;;;43.57;;
7306;SDS011;3694;48.732;9.248;2022-09-12T02:39:57;90.57;;;55.20;;
7306;SDS011;3694;48.732;9.248;2022-09-12T02:42:23;83.73;;;50.00;;
7306;SDS011;3694;48.732;9.248;2022-09-12T02:44:50;69.07;;;41.00;;
7306;SDS011;3694;48.732;9.248;2022-09-12T02:50:14;60.03;;;33.80;;
7306;SDS011;3694;48.732;9.248;2022-09-12T02:52:40;57.87;;;33.67;;
7306;SDS011;3694;48.732;9.248;2022-09-12T02:55:07;60.53;;;32.57;;
7306;SDS011;3694;48.732;9.248;2022-09-12T02:57:37;56.43;;;31.23;;
7306;SDS011;3694;48.732;9.248;2022-09-12T03:00:03;59.60;;;32.83;;
7306;SDS011;3694;48.732;9.248;2022-09-12T03:07:58;69.13;;;35.47;;
7306;SDS011;3694;48.732;9.248;2022-09-12T03:13:24;61.50;;;33.70;;
7306;SDS011;3694;48.732;9.248;2022-09-12T03:18:50;67.67;;;36.93;;
7306;SDS011;3694;48.732;9.248;2022-09-12T03:21:29;72.03;;;37.87;;
7306;SDS011;3694;48.732;9.248;2022-09-12T03:24:08;72.40;;;36.90;;
7306;SDS011;3694;48.732;9.248;2022-09-12T03:26:49;77.20;;;38.13;;
7306;SDS011;3694;48.732;9.248;2022-09-12T03:29:20;69.57;;;36.37;;
7306;SDS011;3694;48.732;9.248;2022-09-12T03:31:49;75.50;;;37.73;;
7306;SDS011;3694;48.732;9.248;2022-09-12T03:34:17;73.97;;;38.17;;
7306;SDS011;3694;48.732;9.248;2022-09-12T03:36:43;77.07;;;38.17;;
7306;SDS011;3694;48.732;9.248;2022-09-12T03:39:08;73.00;;;37.53;;
7306;SDS011;3694;48.732;9.248;2022-09-12T03:41:34;77.27;;;38.53;;
7306;SDS011;3694;48.732;9.248;2022-09-12T03:44:00;76.63;;;37.10;;
7306;SDS011;3694;48.732;9.248;2022-09-12T03:46:26;82.77;;;38.17;;
7306;SDS011;3694;48.732;9.248;2022-09-12T03:48:51;74.30;;;36.93;;
7306;SDS011;3694;48.732;9.248;2022-09-12T03:51:16;78.53;;;35.73;;
7306;SDS011;3694;48.732;9.248;2022-09-12T03:53:42;72.20;;;36.17;;
7306;SDS011;3694;48.732;9.248;2022-09-12T03:56:08;72.33;;;35.43;;
7306;SDS011;3694;48.732;9.248;2022-09-12T03:58:35;73.07;;;36.50;;
7306;SDS011;3694;48.732;9.248;2022-09-12T04:01:08;69.30;;;33.93;;
7306;SDS011;3694;48.732;9.248;2022-09-12T04:03:37;80.80;;;36.67;;
7306;SDS011;3694;48.732;9.248;2022-09-12T04:06:04;69.07;;;35.03;;
7306;SDS011;3694;48.732;9.248;2022-09-12T04:08:30;82.03;;;36.57;;
7306;SDS011;3694;48.732;9.248;2022-09-12T04:11:01;75.43;;;35.93;;
7306;SDS011;3694;48.732;9.248;2022-09-12T04:13:27;78.73;;;35.37;;
7306;SDS011;3694;48.732;9.248;2022-09-12T04:15:56;70.10;;;34.53;;
7306;SDS011;3694;48.732;9.248;2022-09-12T04:18:23;80.47;;;35.27;;
7306;SDS011;3694;48.732;9.248;2022-09-12T04:20:49;81.67;;;35.90;;
7306;SDS011;3694;48.732;9.248;2022-09-12T04:23:14;80.27;;;35.17;;
7306;SDS011;3694;48.732;9.248;2022-09-12T04:25:40;72.57;;;35.63;;
7306;SDS011;3694;48.732;9.248;2022-09-12T04:28:06;73.97;;;36.00;;
7306;SDS011;3694;48.732;9.248;2022-09-12T04:30:32;81.33;;;36.07;;
7306;SDS011;3694;48.732;9.248;2022-09-12T04:32:58;82.70;;;40.23;;
7306;SDS011;3694;48.732;9.248;2022-09-12T04:35:24;99.53;;;49.40;;
7306;SDS011;3694;48.732;9.248;2022-09-12T04:37:49;101.30;;;47.57;;
7306;SDS011;3694;48.732;9.248;2022-09-12T04:40:15;98.47;;;46.80;;
7306;SDS011;3694;48.732;9.248;2022-09-12T04:42:40;108.07;;;50.37;;
7306;SDS011;3694;48.732;9.248;2022-09-12T04:45:06;132.87;;;61.17;;
7306;SDS011;3694;48.732;9.248;2022-09-12T04:47:32;128.40;;;60.17;;
7306;SDS011;3694;48.732;9.248;2022-09-12T04:49:58;112.63;;;52.30;;
7306;SDS011;3694;48.732;9.248;2022-09-12T04:52:23;92.77;;;44.27;;
7306;SDS011;3694;48.732;9.248;2022-09-12T04:54:49;94.83;;;41.90;;
7306;SDS011;3694;48.732;9.248;2022-09-12T04:57:14;91.80;;;40.77;;
7306;SDS011;3694;48.732;9.248;2022-09-12T04:59:40;100.33;;;41.13;;
7306;SDS011;3694;48.732;9.248;2022-09-12T05:02:05;86.47;;;39.13;;
7306;SDS011;3694;48.732;9.248;2022-09-12T05:04:31;95.80;;;40.57;;
7306;SDS011;3694;48.732;9.248;2022-09-12T05:06:56;98.97;;;42.50;;
7306;SDS011;3694;48.732;9.248;2022-09-12T05:09:22;108.03;;;42.40;;
7306;SDS011;3694;48.732;9.248;2022-09-12T05:11:48;103.40;;;42.13;;
7306;SDS011;3694;48.732;9.248;2022-09-12T05:14:13;105.90;;;40.37;;
7306;SDS011;3694;48.732;9.248;2022-09-12T05:16:39;102.17;;;41.40;;
7306;SDS011;3694;48.732;9.248;2022-09-12T05:19:05;96.23;;;42.70;;
7306;SDS011;3694;48.732;9.248;2022-09-12T05:21:31;87.43;;;40.27;;
7306;SDS011;3694;48.732;9.248;2022-09-12T05:23:57;106.27;;;42.20;;
7306;SDS011;3694;48.732;9.248;2022-09-12T05:26:24;104.40;;;42.50;;
7306;SDS011;3694;48.732;9.248;2022-09-12T05:28:50;99.83;;;41.53;;
7306;SDS011;3694;48.732;9.248;2022-09-12T05:31:20;98.63;;;42.07;;
7306;SDS011;3694;48.732;9.248;2022-09-12T05:33:48;105.40;;;41.87;;
7306;SDS011;3694;48.732;9.248;2022-09-12T05:36:22;106.90;;;43.07;;
7306;SDS011;3694;48.732;9.248;2022-09-12T05:38:50;111.33;;;42.77;;
7306;SDS011;3694;48.732;9.248;2022-09-12T05:41:20;115.83;;;41.73;;
7306;SDS011;3694;48.732;9.248;2022-09-12T05:43:51;106.93;;;41.47;;
7306;SDS011;3694;48.732;9.248;2022-09-12T05:46:18;145.00;;;41.90;;
7306;SDS011;3694;48.732;9.248;2022-09-12T05:48:45;172.47;;;42.27;;
7306;SDS011;3694;48.732;9.248;2022-09-12T05:51:19;154.53;;;42.47;;
7306;SDS011;3694;48.732;9.248;2022-09-12T05:53:50;112.53;;;39.07;;
7306;SDS011;3694;48.732;9.248;2022-09-12T05:56:19;91.17;;;35.97;;
7306;SDS011;3694;48.732;9.248;2022-09-12T05:58:51;75.27;;;33.83;;
7306;SDS011;3694;48.732;9.248;2022-09-12T06:01:24;71.60;;;33.20;;
7306;SDS011;3694;48.732;9.248;2022-09-12T06:03:52;80.13;;;34.07;;
7306;SDS011;3694;48.732;9.248;2022-09-12T06:06:20;60.27;;;33.17;;
7306;SDS011;3694;48.732;9.248;2022-09-12T06:08:47;60.23;;;33.43;;
7306;SDS011;3694;48.732;9.248;2022-09-12T06:11:16;44.67;;;30.33;;
7306;SDS011;3694;48.732;9.248;2022-09-12T06:13:43;25.97;;;22.53;;
7306;SDS011;3694;48.732;9.248;2022-09-12T06:16:13;26.13;;;21.43;;
7306;SDS011;3694;48.732;9.248;2022-09-12T06:18:45;28.93;;;21.30;;
7306;SDS011;3694;48.732;9.248;2022-09-12T06:21:15;28.83;;;21.43;;
7306;SDS011;3694;48.732;9.248;2022-09-12T06:23:42;24.50;;;21.57;;
7306;SDS011;3694;48.732;9.248;2022-09-12T06:26:09;29.47;;;21.43;;
7306;SDS011;3694;48.732;9.248;2022-09-12T06:28:37;26.33;;;21.00;;
7306;SDS011;3694;48.732;9.248;2022-09-12T06:31:05;28.57;;;22.93;;
7306;SDS011;3694;48.732;9.248;2022-09-12T06:33:36;28.20;;;22.77;;
7306;SDS011;3694;48.732;9.248;2022-09-12T06:36:25;25.63;;;21.70;;
7306;SDS011;3694;48.732;9.248;2022-09-12T06:38:57;27.63;;;23.20;;
7306;SDS011;3694;48.732;9.248;2022-09-12T06:41:25;28.47;;;22.97;;
7306;SDS011;3694;48.732;9.248;2022-09-12T06:43:52;31.97;;;23.87;;
7306;SDS011;3694;48.732;9.248;2022-09-12T06:46:18;31.00;;;24.53;;
7306;SDS011;3694;48.732;9.248;2022-09-12T06:48:43;26.83;;;23.13;;
7306;SDS011;3694;48.732;9.248;2022-09-12T06:51:10;28.57;;;24.37;;
7306;SDS011;3694;48.732;9.248;2022-09-12T06:53:37;23.90;;;21.30;;
7306;SDS011;3694;48.732;9.248;2022-09-12T06:56:19;18.93;;;17.23;;
7306;SDS011;3694;48.732;9.248;2022-09-12T06:58:46;13.30;;;12.20;;
7306;SDS011;3694;48.732;9.248;2022-09-12T07:01:17;11.53;;;10.53;;
7306;SDS011;3694;48.732;9.248;2022-09-12T07:03:48;10.40;;;9.47;;
7306;SDS011;3694;48.732;9.248;2022-09-12T07:06:16;9.57;;;8.67;;
7306;SDS011;3694;48.732;9.248;2022-09-12T07:08:43;9.40;;;8.60;;
7306;SDS011;3694;48.732;9.248;2022-09-12T07:11:11;9.07;;;8.30;;
7306;SDS011;3694;48.732;9.248;2022-09-12T07:13:37;9.03;;;8.23;;
7306;SDS011;3694;48.732;9.248;2022-09-12T07:16:04;8.67;;;7.80;;
7306;SDS011;3694;48.732;9.248;2022-09-12T07:18:30;9.37;;;8.13;;
7306;SDS011;3694;48.732;9.248;2022-09-12T07:21:00;8.30;;;7.60;;
7306;SDS011;3694;48.732;9.248;2022-09-12T07:23:27;8.07;;;7.27;;
7306;SDS011;3694;48.732;9.248;2022-09-12T07:25:53;8.23;;;7.20;;
7306;SDS011;3694;48.732;9.248;2022-09-12T07:28:21;7.93;;;7.23;;
7306;SDS011;3694;48.732;9.248;2022-09-12T07:30:47;6.93;;;6.43;;
7306;SDS011;3694;48.732;9.248;2022-09-12T07:33:13;7.27;;;6.60;;
7306;SDS011;3694;48.732;9.248;2022-09-12T07:35:38;6.83;;;6.30;;
7306;SDS011;3694;48.732;9.248;2022-09-12T07:38:04;7.70;;;7.07;;
7306;SDS011;3694;48.732;9.248;2022-09-12T07:40:29;6.77;;;6.27;;
7306;SDS011;3694;48.732;9.248;2022-09-12T07:42:55;6.90;;;6.27;;
7306;SDS011;3694;48.732;9.248;2022-09-12T07:45:20;7.17;;;6.47;;
7306;SDS011;3694;48.732;9.248;2022-09-12T07:47:46;6.57;;;5.97;;
7306;SDS011;3694;48.732;9.248;2022-09-12T07:50:11;6.35;;;5.95;;
7306;SDS011;3694;48.732;9.248;2022-09-12T07:52:37;7.25;;;6.65;;
7306;SDS011;3694;48.732;9.248;2022-09-12T07:55:02;6.50;;;6.00;;
7306;SDS011;3694;48.732;9.248;2022-09-12T07:57:28;6.80;;;6.10;;
7306;SDS011;3694;48.732;9.248;2022-09-12T07:59:54;6.50;;;5.88;;
7306;SDS011;3694;48.732;9.248;2022-09-12T08:02:19;6.18;;;5.47;;
7306;SDS011;3694;48.732;9.248;2022-09-12T08:04:46;5.38;;;4.97;;
7306;SDS011;3694;48.732;9.248;2022-09-12T08:07:12;5.50;;;5.00;;
7306;SDS011;3694;48.732;9.248;2022-09-12T08:09:38;5.28;;;4.88;;
7306;SDS011;3694;48.732;9.248;2022-09-12T08:12:04;5.03;;;4.50;;
7306;SDS011;3694;48.732;9.248;2022-09-12T08:14:29;5.05;;;4.65;;
7306;SDS011;3694;48.732;9.248;2022-09-12T08:16:55;5.53;;;4.55;;
7306;SDS011;3694;48.732;9.248;2022-09-12T08:19:20;5.15;;;4.75;;
7306;SDS011;3694;48.732;9.248;2022-09-12T08:21:46;6.43;;;5.82;;
7306;SDS011;3694;48.732;9.248;2022-09-12T08:24:12;5.13;;;4.80;;
7306;SDS011;3694;48.732;9.248;2022-09-12T08:26:38;5.07;;;4.68;;
7306;SDS011;3694;48.732;9.248;2022-09-12T08:29:03;5.20;;;4.70;;
7306;SDS011;3694;48.732;9.248;2022-09-12T08:31:29;4.47;;;4.07;;
7306;SDS011;3694;48.732;9.248;2022-09-12T08:34:01;4.90;;;4.50;;
7306;SDS011;3694;48.732;9.248;2022-09-12T08:36:28;5.20;;;3.67;;
7306;SDS011;3694;48.732;9.248;2022-09-12T08:38:55;3.95;;;3.65;;
7306;SDS011;3694;48.732;9.248;2022-09-12T08:41:29;4.10;;;3.80;;
7306;SDS011;3694;48.732;9.248;2022-09-12T08:44:21;4.03;;;3.72;;
7306;SDS011;3694;48.732;9.248;2022-09-12T08:47:10;4.72;;;3.95;;
7306;SDS011;3694;48.732;9.248;2022-09-12T08:52:43;3.75;;;3.45;;
7306;SDS011;3694;48.732;9.248;2022-09-12T08:58:18;3.58;;;3.15;;
7306;SDS011;3694;48.732;9.248;2022-09-12T09:00:56;3.40;;;3.10;;
7306;SDS011;3694;48.732;9.248;2022-09-12T09:14:58;4.03;;;2.95;;
7306;SDS011;3694;48.732;9.248;2022-09-12T09:17:40;2.47;;;2.20;;
7306;SDS011;3694;48.732;9.248;2022-09-12T09:22:53;2.50;;;2.30;;
7306;SDS011;3694;48.732;9.248;2022-09-12T09:25:23;3.00;;;2.70;;
7306;SDS011;3694;48.732;9.248;2022-09-12T09:28:19;3.08;;;2.60;;
7306;SDS011;3694;48.732;9.248;2022-09-12T09:30:49;4.03;;;3.13;;
7306;SDS011;3694;48.732;9.248;2022-09-12T09:33:22;3.40;;;2.50;;
7306;SDS011;3694;48.732;9.248;2022-09-12T09:35:59;2.33;;;2.20;;
7306;SDS011;3694;48.732;9.248;2022-09-12T09:44:37;3.00;;;2.72;;
7306;SDS011;3694;48.732;9.248;2022-09-12T09:47:03;3.40;;;2.80;;
7306;SDS011;3694;48.732;9.248;2022-09-12T09:49:30;2.63;;;2.40;;
7306;SDS011;3694;48.732;9.248;2022-09-12T09:51:58;2.65;;;2.20;;
7306;SDS011;3694;48.732;9.248;2022-09-12T09:56:55;2.90;;;2.70;;
7306;SDS011;3694;48.732;9.248;2022-09-12T09:59:27;2.77;;;2.47;;
7306;SDS011;3694;48.732;9.248;2022-09-12T10:01:56;3.73;;;2.67;;
7306;SDS011;3694;48.732;9.248;2022-09-12T10:04:28;3.27;;;2.70;;
7306;SDS011;3694;48.732;9.248;2022-09-12T10:06:56;2.60;;;2.40;;
7306;SDS011;3694;48.732;9.248;2022-09-12T10:09:25;3.23;;;2.63;;
7306;SDS011;3694;48.732;9.248;2022-09-12T10:11:52;2.93;;;2.70;;
7306;SDS011;3694;48.732;9.248;2022-09-12T10:17:04;2.27;;;2.07;;
7306;SDS011;3694;48.732;9.248;2022-09-12T10:19:47;2.50;;;2.20;;
7306;SDS011;3694;48.732;9.248;2022-09-12T10:22:19;2.83;;;2.40;;
7306;SDS011;3694;48.732;9.248;2022-09-12T10:24:49;2.57;;;2.37;;
7306;SDS011;3694;48.732;9.248;2022-09-12T10:29:54;2.40;;;2.20;;
7306;SDS011;3694;48.732;9.248;2022-09-12T10:32:24;1.90;;;1.80;;
7306;SDS011;3694;48.732;9.248;2022-09-12T10:34:55;2.40;;;2.20;;
7306;SDS011;3694;48.732;9.248;2022-09-12T10:37:31;2.30;;;2.13;;
7306;SDS011;3694;48.732;9.248;2022-09-12T10:39:59;2.20;;;2.00;;
7306;SDS011;3694;48.732;9.248;2022-09-12T10:45:23;1.93;;;1.83;;
7306;SDS011;3694;48.732;9.248;2022-09-12T10:47:53;3.40;;;2.07;;
7306;SDS011;3694;48.732;9.248;2022-09-12T10:53:21;1.77;;;1.67;;
7306;SDS011;3694;48.732;9.248;2022-09-12T11:01:34;2.20;;;2.00;;
7306;SDS011;3694;48.732;9.248;2022-09-12T11:04:08;1.83;;;1.73;;
7306;SDS011;3694;48.732;9.248;2022-09-12T11:06:59;2.47;;;2.20;;
7306;SDS011;3694;48.732;9.248;2022-09-12T11:09:54;2.20;;;2.10;;
7306;SDS011;3694;48.732;9.248;2022-09-12T11:12:31;3.20;;;1.90;;
7306;SDS011;3694;48.732;9.248;2022-09-12T11:18:43;1.90;;;1.80;;
7306;SDS011;3694;48.732;9.248;2022-09-12T11:29:29;1.50;;;1.38;;
7306;SDS011;3694;48.732;9.248;2022-09-12T11:32:28;1.42;;;1.33;;
7306;SDS011;3694;48.732;9.248;2022-09-12T11:35:28;1.20;;;1.13;;
7306;SDS011;3694;48.732;9.248;2022-09-12T11:38:01;1.60;;;1.50;;
7306;SDS011;3694;48.732;9.248;2022-09-12T11:40:41;1.48;;;1.38;;
7306;SDS011;3694;48.732;9.248;2022-09-12T11:43:24;1.30;;;1.30;;
7306;SDS011;3694;48.732;9.248;2022-09-12T11:46:05;1.25;;;1.20;;
7306;SDS011;3694;48.732;9.248;2022-09-12T11:48:40;1.77;;;1.15;;
7306;SDS011;3694;48.732;9.248;2022-09-12T11:51:17;1.97;;;1.57;;
7306;SDS011;3694;48.732;9.248;2022-09-12T11:53:45;1.67;;;1.25;;
7306;SDS011;3694;48.732;9.248;2022-09-12T11:56:17;1.35;;;1.25;;
7306;SDS011;3694;48.732;9.248;2022-09-12T11:58:44;1.55;;;1.30;;
7306;SDS011;3694;48.732;9.248;2022-09-12T12:01:19;1.27;;;1.20;;
7306;SDS011;3694;48.732;9.248;2022-09-12T12:03:49;1.10;;;1.00;;
7306;SDS011;3694;48.732;9.248;2022-09-12T12:06:17;2.60;;;1.38;;
7306;SDS011;3694;48.732;9.248;2022-09-12T12:08:46;1.55;;;1.10;;
7306;SDS011;3694;48.732;9.248;2022-09-12T12:11:15;0.85;;;0.85;;
7306;SDS011;3694;48.732;9.248;2022-09-12T12:13:58;1.80;;;0.90;;
7306;SDS011;3694;48.732;9.248;2022-09-12T12:16:28;0.88;;;0.88;;
7306;SDS011;3694;48.732;9.248;2022-09-12T12:19:00;1.60;;;1.10;;
7306;SDS011;3694;48.732;9.248;2022-09-12T12:21:40;1.30;;;1.20;;
7306;SDS011;3694;48.732;9.248;2022-09-12T12:24:11;1.52;;;1.20;;
7306;SDS011;3694;48.732;9.248;2022-09-12T12:34:38;1.58;;;1.17;;
7306;SDS011;3694;48.732;9.248;2022-09-12T12:45:03;1.45;;;1.35;;
7306;SDS011;3694;48.732;9.248;2022-09-12T12:50:05;1.15;;;1.05;;
7306;SDS011;3694;48.732;9.248;2022-09-12T12:55:25;1.33;;;1.33;;
7306;SDS011;3694;48.732;9.248;2022-09-12T12:57:53;0.85;;;0.80;;
7306;SDS011;3694;48.732;9.248;2022-09-12T13:00:25;1.55;;;0.98;;
7306;SDS011;3694;48.732;9.248;2022-09-12T13:05:37;1.03;;;1.03;;
7306;SDS011;3694;48.732;9.248;2022-09-12T13:08:37;1.65;;;0.77;;
7306;SDS011;3694;48.732;9.248;2022-09-12T13:11:00;0.88;;;0.80;;
7306;SDS011;3694;48.732;9.248;2022-09-12T13:16:03;0.60;;;0.60;;
7306;SDS011;3694;48.732;9.248;2022-09-12T13:18:31;0.88;;;0.88;;
7306;SDS011;3694;48.732;9.248;2022-09-12T13:21:08;0.77;;;0.77;;
7306;SDS011;3694;48.732;9.248;2022-09-12T13:23:36;0.90;;;0.73;;
7306;SDS011;3694;48.732;9.248;2022-09-12T13:26:02;0.50;;;0.50;;
7306;SDS011;3694;48.732;9.248;2022-09-12T13:28:34;0.70;;;0.70;;
7306;SDS011;3694;48.732;9.248;2022-09-12T13:31:10;0.90;;;0.90;;
7306;SDS011;3694;48.732;9.248;2022-09-12T13:33:49;0.80;;;0.80;;
7306;SDS011;3694;48.732;9.248;2022-09-12T13:39:44;0.88;;;0.70;;
7306;SDS011;3694;48.732;9.248;2022-09-12T13:42:21;0.85;;;0.85;;
7306;SDS011;3694;48.732;9.248;2022-09-12T13:45:00;0.77;;;0.70;;
7306;SDS011;3694;48.732;9.248;2022-09-12T13:47:35;1.47;;;0.50;;
7306;SDS011;3694;48.732;9.248;2022-09-12T13:50:05;0.52;;;0.50;;
7306;SDS011;3694;48.732;9.248;2022-09-12T13:52:33;1.45;;;0.70;;
7306;SDS011;3694;48.732;9.248;2022-09-12T13:55:01;0.75;;;0.73;;
7306;SDS011;3694;48.732;9.248;2022-09-12T13:57:36;1.88;;;0.65;;
7306;SDS011;3694;48.732;9.248;2022-09-12T14:00:15;1.20;;;0.70;;
7306;SDS011;3694;48.732;9.248;2022-09-12T14:02:43;1.00;;;0.90;;
7306;SDS011;3694;48.732;9.248;2022-09-12T14:05:11;0.70;;;0.70;;
7306;SDS011;3694;48.732;9.248;2022-09-12T14:10:29;0.70;;;0.60;;
7306;SDS011;3694;48.732;9.248;2022-09-12T14:12:58;1.13;;;0.80;;
7306;SDS011;3694;48.732;9.248;2022-09-12T14:15:27;0.70;;;0.70;;
7306;SDS011;3694;48.732;9.248;2022-09-12T14:17:58;0.60;;;0.60;;
7306;SDS011;3694;48.732;9.248;2022-09-12T14:20:26;1.70;;;0.80;;
7306;SDS011;3694;48.732;9.248;2022-09-12T14:22:58;0.87;;;0.87;;
7306;SDS011;3694;48.732;9.248;2022-09-12T14:25:26;0.77;;;0.77;;
7306;SDS011;3694;48.732;9.248;2022-09-12T14:28:00;0.87;;;0.87;;
7306;SDS011;3694;48.732;9.248;2022-09-12T14:30:27;1.50;;;1.00;;
7306;SDS011;3694;48.732;9.248;2022-09-12T14:35:35;1.13;;;1.00;;
7306;SDS011;3694;48.732;9.248;2022-09-12T14:40:41;1.30;;;1.20;;
7306;SDS011;3694;48.732;9.248;2022-09-12T14:43:24;1.33;;;1.00;;
7306;SDS011;3694;48.732;9.248;2022-09-12T14:45:55;2.43;;;1.77;;
7306;SDS011;3694;48.732;9.248;2022-09-12T14:48:26;3.70;;;1.77;;
7306;SDS011;3694;48.732;9.248;2022-09-12T14:50:55;2.67;;;2.10;;
7306;SDS011;3694;48.732;9.248;2022-09-12T14:53:32;1.90;;;1.37;;
7306;SDS011;3694;48.732;9.248;2022-09-12T14:56:11;2.47;;;1.73;;
7306;SDS011;3694;48.732;9.248;2022-09-12T14:58:37;1.67;;;1.30;;
7306;SDS011;3694;48.732;9.248;2022-09-12T15:05:59;1.13;;;1.13;;
7306;SDS011;3694;48.732;9.248;2022-09-12T15:08:27;1.30;;;1.20;;
7306;SDS011;3694;48.732;9.248;2022-09-12T15:10:53;1.10;;;1.10;;
7306;SDS011;3694;48.732;9.248;2022-09-12T15:13:20;1.53;;;1.27;;
7306;SDS011;3694;48.732;9.248;2022-09-12T15:15:54;1.40;;;1.30;;
7306;SDS011;3694;48.732;9.248;2022-09-12T15:18:23;1.40;;;1.10;;
7306;SDS011;3694;48.732;9.248;2022-09-12T15:20:51;1.37;;;1.10;;
7306;SDS011;3694;48.732;9.248;2022-09-12T15:23:28;1.30;;;1.20;;
7306;SDS011;3694;48.732;9.248;2022-09-12T15:25:55;1.23;;;1.13;;
7306;SDS011;3694;48.732;9.248;2022-09-12T15:28:21;1.57;;;1.17;;
7306;SDS011;3694;48.732;9.248;2022-09-12T15:30:48;1.87;;;1.30;;
7306;SDS011;3694;48.732;9.248;2022-09-12T15:33:16;1.40;;;1.10;;
7306;SDS011;3694;48.732;9.248;2022-09-12T15:35:43;1.20;;;1.10;;
7306;SDS011;3694;48.732;9.248;2022-09-12T15:38:09;2.10;;;1.40;;
7306;SDS011;3694;48.732;9.248;2022-09-12T15:40:34;1.07;;;0.93;;
7306;SDS011;3694;48.732;9.248;2022-09-12T15:43:00;1.00;;;1.00;;
7306;SDS011;3694;48.732;9.248;2022-09-12T15:45:28;2.50;;;1.00;;
7306;SDS011;3694;48.732;9.248;2022-09-12T15:47:55;1.20;;;1.10;;
7306;SDS011;3694;48.732;9.248;2022-09-12T15:50:22;1.97;;;1.10;;
7306;SDS011;3694;48.732;9.248;2022-09-12T15:52:48;1.27;;;1.17;;
7306;SDS011;3694;48.732;9.248;2022-09-12T15:55:16;1.43;;;1.30;;
7306;SDS011;3694;48.732;9.248;2022-09-12T15:57:43;1.50;;;1.40;;
7306;SDS011;3694;48.732;9.248;2022-09-12T16:00:10;1.20;;;1.10;;
7306;SDS011;3694;48.732;9.248;2022-09-12T16:02:36;1.50;;;1.40;;
7306;SDS011;3694;48.732;9.248;2022-09-12T16:05:02;1.30;;;1.20;;
7306;SDS011;3694;48.732;9.248;2022-09-12T16:07:28;1.30;;;1.20;;
7306;SDS011;3694;48.732;9.248;2022-09-12T16:09:54;1.27;;;1.17;;
7306;SDS011;3694;48.732;9.248;2022-09-12T16:12:20;1.83;;;1.47;;
7306;SDS011;3694;48.732;9.248;2022-09-12T16:14:45;2.17;;;1.50;;
7306;SDS011;3694;48.732;9.248;2022-09-12T16:17:11;1.67;;;1.10;;
7306;SDS011;3694;48.732;9.248;2022-09-12T16:19:36;1.20;;;1.13;;
7306;SDS011;3694;48.732;9.248;2022-09-12T16:22:02;1.00;;;1.00;;
7306;SDS011;3694;48.732;9.248;2022-09-12T16:24:27;1.20;;;1.10;;
7306;SDS011;3694;48.732;9.248;2022-09-12T16:26:53;1.63;;;1.20;;
7306;SDS011;3694;48.732;9.248;2022-09-12T16:29:19;1.87;;;1.53;;
7306;SDS011;3694;48.732;9.248;2022-09-12T16:31:44;1.57;;;1.47;;
7306;SDS011;3694;48.732;9.248;2022-09-12T16:34:10;2.03;;;1.40;;
7306;SDS011;3694;48.732;9.248;2022-09-12T16:36:35;1.13;;;1.00;;
7306;SDS011;3694;48.732;9.248;2022-09-12T16:39:01;1.50;;;1.40;;
7306;SDS011;3694;48.732;9.248;2022-09-12T16:41:27;1.60;;;1.50;;
7306;SDS011;3694;48.732;9.248;2022-09-12T16:43:53;1.30;;;1.20;;
7306;SDS011;3694;48.732;9.248;2022-09-12T16:46:20;1.50;;;1.40;;
7306;SDS011;3694;48.732;9.248;2022-09-12T16:48:48;1.33;;;1.23;;
7306;SDS011;3694;48.732;9.248;2022-09-12T16:51:16;1.80;;;1.70;;
7306;SDS011;3694;48.732;9.248;2022-09-12T16:53:44;1.70;;;1.53;;
7306;SDS011;3694;48.732;9.248;2022-09-12T16:56:10;2.20;;;1.50;;
7306;SDS011;3694;48.732;9.248;2022-09-12T16:58:36;1.87;;;1.77;;
7306;SDS011;3694;48.732;9.248;2022-09-12T17:01:07;1.70;;;1.53;;
7306;SDS011;3694;48.732;9.248;2022-09-12T17:03:34;2.23;;;2.13;;
7306;SDS011;3694;48.732;9.248;2022-09-12T17:06:02;4.73;;;4.20;;
7306;SDS011;3694;48.732;9.248;2022-09-12T17:08:32;4.67;;;4.03;;
7306;SDS011;3694;48.732;9.248;2022-09-12T17:10:59;1.90;;;1.80;;
7306;SDS011;3694;48.732;9.248;2022-09-12T17:13:26;3.87;;;3.47;;
7306;SDS011;3694;48.732;9.248;2022-09-12T17:15:52;2.10;;;1.60;;
7306;SDS011;3694;48.732;9.248;2022-09-12T17:18:18;2.00;;;1.50;;
7306;SDS011;3694;48.732;9.248;2022-09-12T17:20:44;1.90;;;1.40;;
7306;SDS011;3694;48.732;9.248;2022-09-12T17:23:09;2.27;;;2.00;;
7306;SDS011;3694;48.732;9.248;2022-09-12T17:25:35;3.37;;;3.07;;
7306;SDS011;3694;48.732;9.248;2022-09-12T17:28:01;3.43;;;3.10;;
7306;SDS011;3694;48.732;9.248;2022-09-12T17:30:32;2.70;;;2.50;;
7306;SDS011;3694;48.732;9.248;2022-09-12T17:32:58;2.30;;;2.10;;
7306;SDS011;3694;48.732;9.248;2022-09-12T17:35:24;2.50;;;1.73;;
7306;SDS011;3694;48.732;9.248;2022-09-12T17:37:50;4.00;;;3.60;;
7306;SDS011;3694;48.732;9.248;2022-09-12T17:40:16;4.07;;;2.50;;